createdAt,value
2019-05-06T00:04:18.274Z,7.57
2019-05-06T00:14:23.544Z,7.30
2019-05-06T00:24:30.694Z,7.20
2019-05-06T00:34:35.266Z,7.60
2019-05-06T00:44:39.706Z,6.97
2019-05-06T00:54:44.254Z,6.70
2019-05-06T01:04:48.833Z,7.50
2019-05-06T01:14:54.923Z,7.10
2019-05-06T01:24:59.390Z,6.90
2019-05-06T01:35:04.768Z,6.97
2019-05-06T01:45:10.531Z,7.30
2019-05-06T01:55:16.549Z,6.83
2019-05-06T02:05:24.194Z,6.87
2019-05-06T02:15:28.384Z,9.03
2019-05-06T02:25:34.486Z,6.93
2019-05-06T02:35:46.841Z,7.05
2019-05-06T02:45:53.070Z,7.30
2019-05-06T02:55:57.911Z,6.40
2019-05-06T03:06:03.835Z,6.43
2019-05-06T03:16:08.619Z,5.73
2019-05-06T03:26:13.810Z,5.57
2019-05-06T03:36:25.952Z,6.13
2019-05-06T03:46:43.118Z,6.40
2019-05-06T03:56:48.223Z,6.30
2019-05-06T04:06:53.717Z,6.37
2019-05-06T04:17:13.151Z,6.77
2019-05-06T04:27:43.071Z,6.63
2019-05-06T04:37:47.968Z,6.50
2019-05-06T04:47:53.705Z,6.33
2019-05-06T04:57:58.741Z,6.97
2019-05-06T05:08:04.256Z,6.40
2019-05-06T05:18:13.239Z,6.67
2019-05-06T05:28:18.871Z,6.80
2019-05-06T05:38:23.653Z,6.07
2019-05-06T05:48:32.772Z,7.07
2019-05-06T05:58:37.587Z,6.70
2019-05-06T06:08:43.277Z,6.10
2019-05-06T06:19:05.824Z,6.13
2019-05-06T06:29:12.483Z,6.57
2019-05-06T06:39:27.627Z,6.27
2019-05-06T06:49:32.860Z,6.20
2019-05-06T06:59:42.854Z,5.45
2019-05-06T07:09:47.334Z,6.13
2019-05-06T07:19:53.450Z,5.70
2019-05-06T07:29:58.019Z,3.93
2019-05-06T07:40:05.401Z,3.50
2019-05-06T07:50:13.111Z,4.20
2019-05-06T08:00:17.934Z,3.50
2019-05-06T08:10:22.522Z,2.97
2019-05-06T08:20:39.426Z,2.10
2019-05-06T08:30:45.060Z,2.27
2019-05-06T08:40:49.541Z,2.97
2019-05-06T08:50:56.792Z,2.37
2019-05-06T09:01:05.894Z,1.80
2019-05-06T09:11:12.221Z,2.50
2019-05-06T09:21:16.806Z,2.60
2019-05-06T09:31:25.830Z,2.00
2019-05-06T09:41:32.405Z,2.40
2019-05-06T09:51:36.493Z,2.60
2019-05-06T10:01:43.545Z,2.60
2019-05-06T10:11:47.510Z,2.50
2019-05-06T10:21:53.086Z,2.70
2019-05-06T10:32:08.696Z,2.53
2019-05-06T10:42:16.298Z,2.60
2019-05-06T10:52:22.546Z,2.73
2019-05-06T11:02:34.728Z,2.27
2019-05-06T11:12:39.273Z,2.63
2019-05-06T11:22:45.084Z,2.43
2019-05-06T11:32:57.010Z,2.63
2019-05-06T11:43:01.649Z,2.70
2019-05-06T11:53:06.219Z,2.57
2019-05-06T12:03:12.761Z,2.60
2019-05-06T12:13:17.425Z,2.80
2019-05-06T12:23:22.463Z,3.10
2019-05-06T12:33:29.165Z,2.77
2019-05-06T12:43:35.281Z,3.00
2019-05-06T12:53:39.828Z,3.03
2019-05-06T13:03:44.424Z,2.93
2019-05-06T13:13:57.551Z,3.63
2019-05-06T13:23:57.112Z,3.13
2019-05-06T13:34:06.353Z,3.83
2019-05-06T13:44:13.454Z,4.07
2019-05-06T13:54:18.295Z,3.92
2019-05-06T14:04:24.085Z,3.80
2019-05-06T14:14:28.793Z,3.50
2019-05-06T14:24:34.684Z,4.15
2019-05-06T14:34:39.148Z,3.83
2019-05-06T14:44:43.815Z,3.53
2019-05-06T14:54:50.112Z,3.37
2019-05-06T15:04:55.042Z,3.80
2019-05-06T15:14:59.515Z,3.40
2019-05-06T15:25:05.557Z,4.63
2019-05-06T15:35:28.340Z,4.60
2019-05-06T15:45:33.084Z,4.23
2019-05-06T15:55:37.574Z,4.30
2019-05-06T16:05:43.694Z,4.15
2019-05-06T16:15:49.952Z,3.63
2019-05-06T16:25:54.542Z,4.23
2019-05-06T16:35:59.258Z,5.60
2019-05-06T16:46:03.921Z,4.37
2019-05-06T16:56:19.371Z,4.23
2019-05-06T17:06:28.342Z,4.00
2019-05-06T17:16:34.035Z,6.12
2019-05-06T17:26:38.891Z,7.77
2019-05-06T17:36:44.415Z,3.90
2019-05-06T17:46:53.155Z,4.43
2019-05-06T17:57:01.439Z,5.80
2019-05-06T18:07:05.301Z,5.80
2019-05-06T18:17:12.314Z,5.07
2019-05-06T18:27:16.275Z,6.87
2019-05-06T18:37:23.375Z,5.47
2019-05-06T18:47:28.185Z,4.27
2019-05-06T18:57:33.126Z,3.50
2019-05-06T19:07:39.462Z,3.40
2019-05-06T19:17:44.459Z,3.50
2019-05-06T19:27:50.035Z,6.40
2019-05-06T19:37:54.642Z,5.73
2019-05-06T19:47:59.317Z,7.63
2019-05-06T19:58:04.083Z,5.27
2019-05-06T20:08:16.359Z,7.10
2019-05-06T20:18:21.116Z,8.33
2019-05-06T20:28:25.634Z,6.73
2019-05-06T20:38:30.209Z,7.20
2019-05-06T20:48:34.849Z,5.27
2019-05-06T20:58:39.289Z,4.87
2019-05-06T21:08:43.809Z,5.03
2019-05-06T21:18:48.393Z,3.77
2019-05-06T21:28:52.922Z,4.70
2019-05-06T21:38:57.410Z,4.47
2019-05-06T21:49:01.904Z,4.07
2019-05-06T21:59:06.479Z,5.17
2019-05-06T22:09:13.156Z,6.90
2019-05-06T22:19:20.811Z,6.23
2019-05-06T22:29:25.251Z,7.13
2019-05-06T22:39:31.705Z,8.30
2019-05-06T22:49:35.856Z,6.30
2019-05-06T22:59:42.346Z,5.97
2019-05-06T23:09:46.595Z,5.37
2019-05-06T23:19:52.804Z,6.07
2019-05-06T23:29:57.281Z,5.70
2019-05-06T23:40:39.731Z,5.17
2019-05-06T23:51:22.335Z,5.00
